createdAt,value
2024-02-21T00:00:34.625Z,102256.25
2024-02-21T00:03:03.217Z,102262.44
2024-02-21T00:05:29.847Z,102245.78
2024-02-21T00:07:56.502Z,102242.28
2024-02-21T00:10:23.086Z,102231.84
2024-02-21T00:12:49.623Z,102225.09
2024-02-21T00:15:16.233Z,102222.63
2024-02-21T00:17:43.499Z,102211.91
2024-02-21T00:20:10.804Z,102218.50
2024-02-21T00:22:37.782Z,102216.06
2024-02-21T00:25:04.666Z,102219.53
2024-02-21T00:27:31.359Z,102222.00
2024-02-21T00:29:57.869Z,102218.75
2024-02-21T00:32:24.376Z,102217.69
2024-02-21T00:34:50.867Z,102219.53
2024-02-21T00:37:17.447Z,102219.78
2024-02-21T00:39:44.080Z,102216.88
2024-02-21T00:42:10.558Z,102207.00
2024-02-21T00:44:37.248Z,102218.75
2024-02-21T00:47:04.016Z,102211.31
2024-02-21T00:49:30.598Z,102222.00
2024-02-21T00:51:57.151Z,102214.00
2024-02-21T00:54:24.173Z,102218.50
2024-02-21T00:56:50.866Z,102220.38
2024-02-21T00:59:17.888Z,102219.53
2024-02-21T01:01:44.635Z,102227.56
2024-02-21T01:04:11.548Z,102238.25
2024-02-21T01:06:38.161Z,102242.56
2024-02-21T01:09:05.077Z,102239.88
2024-02-21T01:11:31.761Z,102238.25
2024-02-21T01:13:58.862Z,102235.38
2024-02-21T01:16:25.652Z,102221.81
2024-02-21T01:18:52.226Z,102218.91
2024-02-21T01:21:18.844Z,102218.31
2024-02-21T01:23:45.381Z,102225.28
2024-02-21T01:26:14.286Z,102215.63
2024-02-21T01:28:41.552Z,102214.59
2024-02-21T01:31:08.458Z,102206.56
2024-02-21T01:33:40.112Z,102204.94
2024-02-21T01:36:10.002Z,102203.31
2024-02-21T01:38:36.779Z,102198.78
2024-02-21T01:41:03.625Z,102196.31
2024-02-21T01:43:30.155Z,102201.66
2024-02-21T01:45:58.256Z,102192.59
2024-02-21T01:48:26.171Z,102187.25
2024-02-21T01:50:54.927Z,102175.75
2024-02-21T01:53:24.188Z,102174.94
2024-02-21T01:55:50.788Z,102165.28
2024-02-21T01:58:18.305Z,102167.97
2024-02-21T02:00:46.698Z,102179.44
2024-02-21T02:03:17.973Z,102170.63
2024-02-21T02:05:48.655Z,102161.78
2024-02-21T02:08:16.413Z,102163.41
2024-02-21T02:10:43.824Z,102170.41
2024-02-21T02:13:11.228Z,102158.91
2024-02-21T02:15:41.385Z,102145.75
2024-02-21T02:18:08.026Z,102142.28
2024-02-21T02:20:34.813Z,102141.22
2024-02-21T02:23:10.918Z,102133.22
2024-02-21T02:25:38.319Z,102134.25
2024-02-21T02:28:06.379Z,102137.13
2024-02-21T02:30:39.127Z,102133.22
2024-02-21T02:33:06.264Z,102134.84
2024-02-21T02:35:33.622Z,102127.03
2024-02-21T02:38:00.252Z,102125.19
2024-02-21T02:40:26.894Z,102128.91
2024-02-21T02:42:56.368Z,102131.59
2024-02-21T02:45:24.893Z,102127.28
2024-02-21T02:47:51.469Z,102132.63
2024-02-21T02:50:18.220Z,102127.28
2024-02-21T02:52:44.873Z,102129.09
2024-02-21T02:55:11.328Z,102129.34
2024-02-21T02:57:38.033Z,102116.78
2024-02-21T03:00:05.702Z,102110.63
2024-02-21T03:02:32.831Z,102110.63
2024-02-21T03:04:59.729Z,102096.25
2024-02-21T03:07:26.997Z,102095.63
2024-02-21T03:09:54.466Z,102100.75
2024-02-21T03:12:25.649Z,102095.88
2024-02-21T03:14:52.253Z,102096.69
2024-02-21T03:17:18.668Z,102087.03
2024-02-21T03:19:45.149Z,102086.22
2024-02-21T03:22:11.663Z,102092.38
2024-02-21T03:24:38.286Z,102084.59
2024-02-21T03:27:05.087Z,102074.94
2024-02-21T03:29:31.467Z,102073.91
2024-02-21T03:31:57.990Z,102069.81
2024-02-21T03:34:24.509Z,102065.28
2024-02-21T03:36:51.078Z,102055.63
2024-02-21T03:39:17.572Z,102052.97
2024-02-21T03:41:44.735Z,102047.84
2024-02-21T03:44:11.375Z,102048.91
2024-02-21T03:46:37.908Z,102052.97
2024-02-21T03:49:04.440Z,102041.69
2024-02-21T03:51:31.131Z,102043.56
2024-02-21T03:53:57.744Z,102044.59
2024-02-21T03:56:24.403Z,102046.44
2024-02-21T03:58:51.656Z,102039.44
2024-02-21T04:01:18.543Z,102044.00
2024-02-21T04:03:45.897Z,102039.69
2024-02-21T04:06:12.465Z,102048.50
2024-02-21T04:08:40.520Z,102040.72
2024-02-21T04:11:07.013Z,102036.41
2024-02-21T04:13:33.524Z,102043.41
2024-02-21T04:16:00.030Z,102047.69
2024-02-21T04:18:29.248Z,102029.25
2024-02-21T04:20:55.791Z,102020.38
2024-02-21T04:23:22.213Z,102016.91
2024-02-21T04:25:48.821Z,102022.47
2024-02-21T04:28:15.442Z,102017.13
2024-02-21T04:30:41.896Z,102018.16
2024-02-21T04:33:08.485Z,102029.88
2024-02-21T04:35:37.486Z,102020.03
2024-02-21T04:38:05.224Z,102016.31
2024-02-21T04:40:31.924Z,102013.06
2024-02-21T04:42:58.815Z,102009.34
2024-02-21T04:45:25.448Z,102007.72
2024-02-21T04:47:51.867Z,101998.06
2024-02-21T04:50:18.499Z,101998.91
2024-02-21T04:52:45.138Z,101990.28
2024-02-21T04:55:11.735Z,101987.63
2024-02-21T04:57:38.286Z,101989.25
2024-02-21T05:00:05.339Z,101986.56
2024-02-21T05:02:31.902Z,101993.56
2024-02-21T05:04:58.525Z,101984.09
2024-02-21T05:07:25.080Z,101987.38
2024-02-21T05:09:51.681Z,101991.91
2024-02-21T05:12:18.221Z,101987.38
2024-02-21T05:14:44.770Z,101994.34
2024-02-21T05:17:11.311Z,101984.72
2024-02-21T05:19:37.992Z,101975.88
2024-02-21T05:22:04.852Z,101969.72
2024-02-21T05:24:31.389Z,101967.88
2024-02-21T05:26:57.905Z,101966.25
2024-02-21T05:29:24.348Z,101962.53
2024-02-21T05:31:54.001Z,101954.72
2024-02-21T05:34:22.015Z,101955.75
2024-02-21T05:36:50.913Z,101946.13
2024-02-21T05:39:18.578Z,101936.25
2024-02-21T05:41:45.484Z,101937.31
2024-02-21T05:44:12.444Z,101931.97
2024-02-21T05:46:38.910Z,101936.47
2024-02-21T05:49:05.485Z,101916.97
2024-02-21T05:51:35.968Z,101915.34
2024-02-21T05:54:02.784Z,101904.91
2024-02-21T05:56:29.611Z,101903.03
2024-02-21T05:58:56.154Z,101910.25
2024-02-21T06:01:23.071Z,101909.41
2024-02-21T06:03:49.652Z,101905.94
2024-02-21T06:06:16.248Z,101902.44
2024-02-21T06:08:42.830Z,101902.22
2024-02-21T06:11:09.495Z,101893.38
2024-02-21T06:13:40.415Z,101894.22
2024-02-21T06:16:08.030Z,101896.06
2024-02-21T06:18:37.104Z,101891.75
2024-02-21T06:21:03.715Z,101888.03
2024-02-21T06:23:30.185Z,101898.72
2024-02-21T06:25:56.777Z,101890.94
2024-02-21T06:28:23.345Z,101896.06
2024-02-21T06:30:49.915Z,101897.09
2024-02-21T06:33:16.549Z,101897.31
2024-02-21T06:35:44.028Z,101903.47
2024-02-21T06:38:10.761Z,101909.28
2024-02-21T06:40:40.877Z,101907.84
2024-02-21T06:43:07.472Z,101910.78
2024-02-21T06:45:33.927Z,101907.50
2024-02-21T06:48:00.636Z,101906.69
2024-02-21T06:50:27.283Z,101900.16
2024-02-21T06:52:53.831Z,101897.50
2024-02-21T06:55:20.437Z,101895.06
2024-02-21T06:57:46.985Z,101881.72
2024-02-21T07:00:14.318Z,101895.88
2024-02-21T07:02:40.742Z,101886.03
2024-02-21T07:05:07.723Z,101880.88
2024-02-21T07:07:36.318Z,101889.72
2024-02-21T07:10:02.953Z,101883.56
2024-02-21T07:12:29.360Z,101886.47
2024-02-21T07:14:55.802Z,101874.16
2024-02-21T07:17:22.391Z,101865.31
2024-02-21T07:19:48.977Z,101865.31
2024-02-21T07:22:15.524Z,101866.94
2024-02-21T07:24:42.085Z,101871.47
2024-02-21T07:27:08.568Z,101874.16
2024-02-21T07:29:34.999Z,101858.34
2024-02-21T07:32:02.611Z,101858.13
2024-02-21T07:34:29.343Z,101860.81
2024-02-21T07:36:56.952Z,101849.28
2024-02-21T07:39:23.480Z,101846.41
2024-02-21T07:41:50.460Z,101837.38
2024-02-21T07:44:17.299Z,101834.47
2024-02-21T07:46:43.781Z,101831.34
2024-02-21T07:49:10.391Z,101821.69
2024-02-21T07:51:37.532Z,101810.44
2024-02-21T07:54:05.389Z,101804.84
2024-02-21T07:56:32.272Z,101807.31
2024-02-21T07:58:59.130Z,101796.75
2024-02-21T08:01:26.040Z,101796.75
2024-02-21T08:03:52.950Z,101807.41
2024-02-21T08:06:19.705Z,101801.88
2024-02-21T08:08:46.232Z,101806.16
2024-02-21T08:11:12.861Z,101802.47
2024-02-21T08:13:39.469Z,101797.69
2024-02-21T08:16:06.187Z,101796.63
2024-02-21T08:18:32.909Z,101797.22
2024-02-21T08:20:59.530Z,101783.66
2024-02-21T08:23:26.199Z,101786.69
2024-02-21T08:25:52.983Z,101782.16
2024-02-21T08:28:19.550Z,101776.34
2024-02-21T08:30:49.011Z,101782.28
2024-02-21T08:33:17.812Z,101772.97
2024-02-21T08:35:44.459Z,101762.88
2024-02-21T08:38:11.128Z,101766.13
2024-02-21T08:40:38.088Z,101763.47
2024-02-21T08:43:04.867Z,101761.72
2024-02-21T08:45:31.524Z,101763.13
2024-02-21T08:47:58.400Z,101749.53
2024-02-21T08:50:28.669Z,101737.81
2024-02-21T08:52:56.528Z,101736.97
2024-02-21T08:55:23.461Z,101728.75
2024-02-21T08:57:50.148Z,101723.75
2024-02-21T09:00:17.473Z,101742.22
2024-02-21T09:02:44.576Z,101749.19
2024-02-21T09:05:12.014Z,101733.41
2024-02-21T09:07:38.698Z,101725.97
2024-02-21T09:10:05.542Z,101723.09
2024-02-21T09:12:32.003Z,101721.91
2024-02-21T09:14:58.542Z,101723.31
2024-02-21T09:17:26.386Z,101721.66
2024-02-21T09:19:53.695Z,101711.91
2024-02-21T09:22:20.348Z,101713.53
2024-02-21T09:24:46.811Z,101702.84
2024-02-21T09:27:13.363Z,101698.31
2024-02-21T09:29:40.681Z,101704.13
2024-02-21T09:32:07.666Z,101696.91
2024-02-21T09:34:34.547Z,101691.34
2024-02-21T09:37:01.121Z,101685.75
2024-02-21T09:39:27.681Z,101679.94
2024-02-21T09:42:00.496Z,101666.91
2024-02-21T09:44:33.937Z,101660.50
2024-02-21T09:47:07.379Z,101663.19
2024-02-21T09:49:36.246Z,101655.41
2024-02-21T09:52:04.190Z,101652.75
2024-02-21T09:54:34.111Z,101638.88
2024-02-21T09:57:04.702Z,101634.94
2024-02-21T09:59:32.854Z,101631.22
2024-02-21T10:02:01.834Z,101612.72
2024-02-21T10:04:29.050Z,101614.34
2024-02-21T10:06:56.202Z,101609.13
2024-02-21T10:09:30.535Z,101616.75
2024-02-21T10:12:08.565Z,101585.22
2024-02-21T10:14:35.248Z,101590.56
2024-02-21T10:17:02.287Z,101577.53
2024-02-21T10:19:29.022Z,101579.59
2024-02-21T10:22:11.523Z,101577.47
2024-02-21T10:24:44.790Z,101577.72
2024-02-21T10:27:14.329Z,101570.03
2024-02-21T10:29:42.812Z,101567.94
2024-02-21T10:32:13.779Z,101556.00
2024-02-21T10:34:42.655Z,101535.00
2024-02-21T10:37:10.695Z,101540.44
2024-02-21T10:39:42.329Z,101543.91
2024-02-21T10:42:12.977Z,101540.75
2024-02-21T10:44:41.362Z,101528.13
2024-02-21T10:47:14.458Z,101522.50
2024-02-21T10:49:46.044Z,101522.03
2024-02-21T10:52:26.561Z,101511.34
2024-02-21T10:55:17.580Z,101502.72
2024-02-21T10:57:45.053Z,101491.81
2024-02-21T11:00:13.720Z,101474.13
2024-02-21T11:02:41.679Z,101450.66
2024-02-21T11:05:09.151Z,101442.94
2024-02-21T11:07:38.413Z,101435.75
2024-02-21T11:10:06.200Z,101444.50
2024-02-21T11:12:34.715Z,101436.41
2024-02-21T11:15:08.298Z,101500.94
2024-02-21T11:17:37.490Z,101504.28
2024-02-21T11:20:15.356Z,101505.75
2024-02-21T11:22:44.971Z,101501.59
2024-02-21T11:25:14.665Z,101491.25
2024-02-21T11:27:47.436Z,101478.09
2024-02-21T11:30:15.505Z,101480.19
2024-02-21T11:32:42.198Z,101469.91
2024-02-21T11:35:09.908Z,101474.13
2024-02-21T11:37:41.369Z,101463.09
2024-02-21T11:40:11.460Z,101455.09
2024-02-21T11:42:38.790Z,101447.31
2024-02-21T11:45:05.818Z,101447.53
2024-02-21T11:47:32.586Z,101426.66
2024-02-21T11:49:59.287Z,101423.63
2024-02-21T11:52:27.744Z,101424.47
2024-02-21T11:54:55.937Z,101421.31
2024-02-21T11:57:22.637Z,101406.31
2024-02-21T11:59:50.387Z,101380.94
2024-02-21T12:02:18.373Z,101357.84
2024-02-21T12:04:45.880Z,101358.84
2024-02-21T12:07:12.772Z,101344.81
2024-02-21T12:09:39.353Z,101342.47
2024-02-21T12:12:07.208Z,101309.88
2024-02-21T12:14:35.763Z,101325.75
2024-02-21T12:17:05.375Z,101295.88
2024-02-21T12:19:33.448Z,101287.69
2024-02-21T12:22:01.036Z,101296.06
2024-02-21T12:24:28.799Z,101291.03
2024-02-21T12:26:57.833Z,101283.09
2024-02-21T12:29:25.923Z,101279.13
2024-02-21T12:31:53.244Z,101267.13
2024-02-21T12:34:27.675Z,101260.69
2024-02-21T12:37:02.497Z,101246.97
2024-02-21T12:39:29.889Z,101240.16
2024-02-21T12:41:57.856Z,101237.72
2024-02-21T12:44:25.272Z,101226.75
2024-02-21T12:46:55.433Z,101220.59
2024-02-21T12:49:22.691Z,101201.66
2024-02-21T12:51:49.650Z,101207.28
2024-02-21T12:54:16.091Z,101197.63
2024-02-21T12:56:42.565Z,101187.19
2024-02-21T12:59:12.239Z,101173.31
2024-02-21T13:01:39.473Z,101166.91
2024-02-21T13:04:06.285Z,101156.69
2024-02-21T13:06:32.803Z,101152.66
2024-02-21T13:09:00.564Z,101140.34
2024-02-21T13:11:29.778Z,101133.16
2024-02-21T13:13:56.284Z,101130.47
2024-02-21T13:16:23.804Z,101130.75
2024-02-21T13:18:50.651Z,101132.09
2024-02-21T13:21:17.756Z,101118.66
2024-02-21T13:23:45.520Z,101127.00
2024-02-21T13:26:12.393Z,101117.91
2024-02-21T13:28:39.211Z,101115.22
2024-02-21T13:31:05.631Z,101104.00
2024-02-21T13:33:32.219Z,101096.75
2024-02-21T13:35:59.551Z,101094.03
2024-02-21T13:38:25.938Z,101090.00
2024-02-21T13:40:52.390Z,101069.09
2024-02-21T13:43:18.907Z,101063.50
2024-02-21T13:45:57.579Z,101050.91
2024-02-21T13:48:24.219Z,101050.63
2024-02-21T13:50:50.721Z,101045.25
2024-02-21T13:53:19.541Z,101034.03
2024-02-21T13:55:46.479Z,101035.91
2024-02-21T13:58:13.129Z,101023.31
2024-02-21T14:00:39.742Z,101012.63
2024-02-21T14:03:06.317Z,101008.31
2024-02-21T14:05:32.884Z,100999.47
2024-02-21T14:07:59.297Z,100990.63
2024-02-21T14:10:25.917Z,100988.50
2024-02-21T14:12:52.484Z,100976.97
2024-02-21T14:15:18.966Z,100970.53
2024-02-21T14:17:45.667Z,100965.44
2024-02-21T14:20:17.526Z,100951.25
2024-02-21T14:22:45.605Z,100943.22
2024-02-21T14:25:12.016Z,100938.38
2024-02-21T14:27:38.461Z,100918.34
2024-02-21T14:30:05.975Z,100915.38
2024-02-21T14:32:33.425Z,100910.84
2024-02-21T14:35:02.568Z,100902.81
2024-02-21T14:37:31.619Z,100892.88
2024-02-21T14:39:58.135Z,100889.69
2024-02-21T14:42:24.575Z,100872.50
2024-02-21T14:44:51.055Z,100866.66
2024-02-21T14:47:17.538Z,100859.13
2024-02-21T14:49:44.714Z,100859.38
2024-02-21T14:52:11.954Z,100844.41
2024-02-21T14:54:39.184Z,100846.25
2024-02-21T14:57:05.913Z,100827.25
2024-02-21T14:59:34.675Z,100832.03
2024-02-21T15:02:02.093Z,100826.69
2024-02-21T15:04:29.042Z,100806.06
2024-02-21T15:06:55.757Z,100807.38
2024-02-21T15:09:22.148Z,100790.75
2024-02-21T15:11:48.844Z,100798.50
2024-02-21T15:14:15.414Z,100792.31
2024-02-21T15:16:41.977Z,100779.75
2024-02-21T15:19:08.406Z,100769.28
2024-02-21T15:21:34.936Z,100770.84
2024-02-21T15:24:03.166Z,100747.81
2024-02-21T15:26:30.941Z,100751.00
2024-02-21T15:28:57.597Z,100738.13
2024-02-21T15:31:24.418Z,100736.50
2024-02-21T15:33:53.400Z,100721.25
2024-02-21T15:36:20.487Z,100701.16
2024-02-21T15:38:47.469Z,100691.78
2024-02-21T15:41:16.741Z,100677.34
2024-02-21T15:43:46.381Z,100691.47
2024-02-21T15:46:13.914Z,100680.25
2024-02-21T15:48:40.744Z,100672.47
2024-02-21T15:51:08.045Z,100670.59
2024-02-21T15:53:34.542Z,100662.53
2024-02-21T15:56:01.190Z,100653.97
2024-02-21T15:58:28.867Z,100648.31
2024-02-21T16:00:55.598Z,100636.28
2024-02-21T16:03:23.041Z,100637.34
2024-02-21T16:05:50.204Z,100629.34
2024-02-21T16:08:20.008Z,100633.34
2024-02-21T16:10:46.782Z,100624.78
2024-02-21T16:13:13.544Z,100617.53
2024-02-21T16:15:41.167Z,100618.06
2024-02-21T16:18:07.900Z,100607.09
2024-02-21T16:20:34.494Z,100601.19
2024-02-21T16:23:04.617Z,100601.97
2024-02-21T16:25:31.545Z,100593.97
2024-02-21T16:27:58.889Z,100602.50
2024-02-21T16:30:25.530Z,100599.28
2024-02-21T16:32:53.544Z,100582.19
2024-02-21T16:35:20.521Z,100586.16
2024-02-21T16:37:48.756Z,100580.03
2024-02-21T16:40:15.378Z,100574.13
2024-02-21T16:42:42.024Z,100570.91
2024-02-21T16:45:09.790Z,100568.50
2024-02-21T16:47:37.553Z,100564.22
2024-02-21T16:50:06.434Z,100573.31
2024-02-21T16:52:33.264Z,100561.84
2024-02-21T16:54:59.853Z,100546.06
2024-02-21T16:57:26.387Z,100555.94
2024-02-21T16:59:54.006Z,100547.13
2024-02-21T17:02:20.879Z,100543.66
2024-02-21T17:04:48.731Z,100532.16
2024-02-21T17:07:15.279Z,100528.69
2024-02-21T17:09:41.755Z,100515.59
2024-02-21T17:12:08.532Z,100513.47
2024-02-21T17:14:36.202Z,100515.59
2024-02-21T17:17:02.913Z,100520.94
2024-02-21T17:19:29.865Z,100499.56
2024-02-21T17:21:56.691Z,100502.47
2024-02-21T17:24:24.124Z,100494.75
2024-02-21T17:26:50.744Z,100485.13
2024-02-21T17:29:17.436Z,100519.03
2024-02-21T17:31:44.601Z,100503.03
2024-02-21T17:34:11.359Z,100492.34
2024-02-21T17:36:37.913Z,100474.19
2024-02-21T17:39:04.514Z,100476.03
2024-02-21T17:41:31.128Z,100477.91
2024-02-21T17:43:57.922Z,100479.78
2024-02-21T17:46:25.838Z,100461.09
2024-02-21T17:48:52.586Z,100466.44
2024-02-21T17:51:19.244Z,100454.94
2024-02-21T17:53:45.834Z,100453.09
2024-02-21T17:56:12.431Z,100447.75
2024-02-21T17:58:39.151Z,100428.28
2024-02-21T18:01:06.038Z,100426.41
2024-02-21T18:03:32.510Z,100421.88
2024-02-21T18:06:04.051Z,100423.47
2024-02-21T18:08:31.305Z,100424.53
2024-02-21T18:10:58.057Z,100423.47
2024-02-21T18:13:24.969Z,100410.69
2024-02-21T18:15:51.706Z,100408.25
2024-02-21T18:18:18.422Z,100390.63
2024-02-21T18:20:44.972Z,100389.56
2024-02-21T18:23:11.633Z,100384.00
2024-02-21T18:25:38.285Z,100383.44
2024-02-21T18:28:05.304Z,100383.44
2024-02-21T18:30:32.780Z,100376.50
2024-02-21T18:33:01.235Z,100373.56
2024-02-21T18:35:27.881Z,100370.13
2024-02-21T18:37:54.762Z,100353.28
2024-02-21T18:40:21.528Z,100364.78
2024-02-21T18:42:48.208Z,100361.84
2024-02-21T18:45:16.931Z,100345.81
2024-02-21T18:47:44.612Z,100343.16
2024-02-21T18:50:11.689Z,100335.16
2024-02-21T18:52:38.464Z,100339.19
2024-02-21T18:55:05.655Z,100326.91
2024-02-21T18:57:33.032Z,100325.03
2024-02-21T18:59:59.533Z,100323.16
2024-02-21T19:02:26.028Z,100309.81
2024-02-21T19:04:52.734Z,100306.34
2024-02-21T19:07:19.212Z,100295.66
2024-02-21T19:09:45.959Z,100296.47
2024-02-21T19:12:13.794Z,100296.72
2024-02-21T19:14:41.975Z,100299.41
2024-02-21T19:17:09.475Z,100291.66
2024-02-21T19:19:37.827Z,100299.13
2024-02-21T19:22:06.456Z,100288.72
2024-02-21T19:24:33.128Z,100285.00
2024-02-21T19:26:59.834Z,100261.22
2024-02-21T19:29:26.356Z,100251.38
2024-02-21T19:31:53.111Z,100255.09
2024-02-21T19:34:20.275Z,100241.50
2024-02-21T19:36:46.990Z,100236.16
2024-02-21T19:39:13.577Z,100232.69
2024-02-21T19:41:40.124Z,100229.22
2024-02-21T19:44:07.303Z,100227.38
2024-02-21T19:46:34.838Z,100220.16
2024-02-21T19:49:02.720Z,100217.19
2024-02-21T19:51:29.507Z,100217.19
2024-02-21T19:54:09.627Z,100215.06
2024-02-21T19:56:42.712Z,100213.22
2024-02-21T19:59:09.429Z,100205.22
2024-02-21T20:01:36.035Z,100196.94
2024-02-21T20:04:04.941Z,100201.47
2024-02-21T20:06:31.494Z,100194.03
2024-02-21T20:08:59.624Z,100197.75
2024-02-21T20:11:30.646Z,100194.03
2024-02-21T20:13:57.901Z,100181.47
2024-02-21T20:16:24.585Z,100187.59
2024-02-21T20:18:51.288Z,100181.19
2024-02-21T20:21:18.127Z,100165.72
2024-02-21T20:23:44.976Z,100164.91
2024-02-21T20:26:11.503Z,100157.69
2024-02-21T20:28:38.040Z,100153.97
2024-02-21T20:31:04.686Z,100145.97
2024-02-21T20:33:31.200Z,100139.56
2024-02-21T20:35:58.543Z,100136.09
2024-02-21T20:38:25.109Z,100134.22
2024-02-21T20:40:51.591Z,100125.16
2024-02-21T20:43:18.185Z,100133.16
2024-02-21T20:45:44.719Z,100124.88
2024-02-21T20:48:11.256Z,100118.47
2024-02-21T20:50:37.846Z,100135.28
2024-02-21T20:53:04.535Z,100119.00
2024-02-21T20:55:32.160Z,100115.25
2024-02-21T20:57:58.850Z,100115.25
2024-02-21T21:00:25.368Z,100109.66
2024-02-21T21:02:52.283Z,100100.56
2024-02-21T21:05:19.058Z,100101.38
2024-02-21T21:07:46.152Z,100089.66
2024-02-21T21:10:17.038Z,100097.66
2024-02-21T21:12:44.868Z,100088.59
2024-02-21T21:15:11.549Z,100079.50
2024-02-21T21:17:38.372Z,100082.97
2024-02-21T21:20:11.337Z,100082.19
2024-02-21T21:22:40.748Z,100082.69
2024-02-21T21:25:08.212Z,100064.81
2024-02-21T21:27:34.727Z,100069.34
2024-02-21T21:30:01.276Z,100074.41
2024-02-21T21:32:28.502Z,100068.00
2024-02-21T21:34:55.053Z,100080.28
2024-02-21T21:37:22.403Z,100072.78
2024-02-21T21:39:55.392Z,100061.03
2024-02-21T21:42:22.966Z,100067.97
2024-02-21T21:44:49.472Z,100073.31
2024-02-21T21:47:16.757Z,100058.91
2024-02-21T21:49:43.249Z,100055.16
2024-02-21T21:52:09.971Z,100062.91
2024-02-21T21:54:36.780Z,100058.38
2024-02-21T21:57:03.317Z,100058.38
2024-02-21T21:59:29.734Z,100048.22
2024-02-21T22:01:56.307Z,100037.25
2024-02-21T22:04:22.929Z,100031.91
2024-02-21T22:06:49.509Z,100032.72
2024-02-21T22:09:16.046Z,100030.59
2024-02-21T22:11:42.520Z,100031.09
2024-02-21T22:14:09.866Z,100042.31
2024-02-21T22:16:36.841Z,100025.22
2024-02-21T22:19:03.647Z,100018.78
2024-02-21T22:21:31.149Z,100010.78
2024-02-21T22:23:57.710Z,100008.66
2024-02-21T22:26:25.001Z,99996.09
2024-02-21T22:28:51.690Z,99994.75
2024-02-21T22:31:18.384Z,99986.75
2024-02-21T22:33:44.874Z,99980.03
2024-02-21T22:36:15.940Z,99978.16
2024-02-21T22:38:44.950Z,99975.22
2024-02-21T22:41:11.513Z,99977.63
2024-02-21T22:43:38.204Z,99978.16
2024-02-21T22:46:05.552Z,99982.41
2024-02-21T22:48:32.212Z,99980.28
2024-02-21T22:50:59.333Z,99979.19
2024-02-21T22:53:25.797Z,99968.22
2024-02-21T22:55:52.375Z,99968.75
2024-02-21T22:58:18.905Z,99974.09
2024-02-21T23:00:45.512Z,99962.91
2024-02-21T23:03:12.377Z,99965.28
2024-02-21T23:05:38.953Z,99962.34
2024-02-21T23:08:05.909Z,99953.22
2024-02-21T23:10:33.943Z,99964.72
2024-02-21T23:13:00.686Z,99956.44
2024-02-21T23:15:27.231Z,99960.69
2024-02-21T23:17:54.027Z,99962.81
2024-02-21T23:20:20.749Z,99953.72
2024-02-21T23:22:47.462Z,99954.53
2024-02-21T23:25:14.230Z,99946.25
2024-02-21T23:27:41.048Z,99952.91
2024-02-21T23:30:12.568Z,99943.81
2024-02-21T23:32:39.385Z,99954.22
2024-02-21T23:35:07.603Z,99954.22
2024-02-21T23:37:34.395Z,99950.19
2024-02-21T23:40:01.063Z,99957.16
2024-02-21T23:42:27.617Z,99945.34
2024-02-21T23:44:56.424Z,99942.41
2024-02-21T23:47:23.421Z,99941.34
2024-02-21T23:49:50.673Z,99941.88
2024-02-21T23:52:17.601Z,99936.53
2024-02-21T23:54:44.074Z,99938.91
2024-02-21T23:57:10.646Z,99933.28
2024-02-21T23:59:39.581Z,99936.47
